sensor_id;sensor_type;location;lat;lon;timestamp;pressure;altitude;pressure_sealevel;temperature;humidity
9969;BME280;5025;48.890;9.278;2022-08-11T00:01:50;99146.78;;;22.47;34.39
9969;BME280;5025;48.890;9.278;2022-08-11T00:04:17;99146.25;;;22.45;34.24
9969;BME280;5025;48.890;9.278;2022-08-11T00:06:44;99148.78;;;22.41;34.49
9969;BME280;5025;48.890;9.278;2022-08-11T00:09:12;99141.41;;;22.36;34.54
9969;BME280;5025;48.890;9.278;2022-08-11T00:11:52;99139.88;;;22.30;34.76
9969;BME280;5025;48.890;9.278;2022-08-11T00:14:22;99142.06;;;22.28;34.72
9969;BME280;5025;48.890;9.278;2022-08-11T00:17:00;99133.06;;;22.23;34.71
9969;BME280;5025;48.890;9.278;2022-08-11T00:19:28;99144.44;;;22.16;34.81
9969;BME280;5025;48.890;9.278;2022-08-11T00:21:56;99145.63;;;22.10;34.91
9969;BME280;5025;48.890;9.278;2022-08-11T00:24:23;99144.59;;;22.06;34.82
9969;BME280;5025;48.890;9.278;2022-08-11T00:26:51;99144.66;;;22.00;35.01
9969;BME280;5025;48.890;9.278;2022-08-11T00:29:18;99140.03;;;21.96;35.04
9969;BME280;5025;48.890;9.278;2022-08-11T00:31:52;99135.66;;;21.95;35.21
9969;BME280;5025;48.890;9.278;2022-08-11T00:34:21;99140.84;;;21.96;35.31
9969;BME280;5025;48.890;9.278;2022-08-11T00:39:19;99141.69;;;21.97;35.48
9969;BME280;5025;48.890;9.278;2022-08-11T00:50:36;99153.78;;;21.77;35.69
9969;BME280;5025;48.890;9.278;2022-08-11T00:53:31;99152.19;;;21.71;35.97
9969;BME280;5025;48.890;9.278;2022-08-11T01:01:50;99140.31;;;21.51;36.29
9969;BME280;5025;48.890;9.278;2022-08-11T01:04:51;99146.63;;;21.52;36.15
9969;BME280;5025;48.890;9.278;2022-08-11T01:13:09;99153.25;;;21.45;36.52
9969;BME280;5025;48.890;9.278;2022-08-11T01:15:47;99145.59;;;21.42;36.38
9969;BME280;5025;48.890;9.278;2022-08-11T01:18:52;99147.31;;;21.38;36.64
9969;BME280;5025;48.890;9.278;2022-08-11T01:48:18;99148.19;;;21.04;37.83
9969;BME280;5025;48.890;9.278;2022-08-11T01:51:14;99145.25;;;20.95;37.95
9969;BME280;5025;48.890;9.278;2022-08-11T01:59:13;99127.00;;;20.81;38.31
9969;BME280;5025;48.890;9.278;2022-08-11T02:02:17;99132.78;;;20.79;38.47
9969;BME280;5025;48.890;9.278;2022-08-11T02:05:06;99133.66;;;20.74;38.36
9969;BME280;5025;48.890;9.278;2022-08-11T02:10:33;99132.28;;;20.72;38.43
9969;BME280;5025;48.890;9.278;2022-08-11T02:13:52;99137.25;;;20.70;38.51
9969;BME280;5025;48.890;9.278;2022-08-11T02:25:53;99135.91;;;20.62;38.88
9969;BME280;5025;48.890;9.278;2022-08-11T02:28:28;99128.53;;;20.57;39.06
9969;BME280;5025;48.890;9.278;2022-08-11T02:31:02;99128.59;;;20.47;39.37
9969;BME280;5025;48.890;9.278;2022-08-11T02:33:53;99122.63;;;20.40;39.42
9969;BME280;5025;48.890;9.278;2022-08-11T02:36:32;99120.72;;;20.35;39.47
9969;BME280;5025;48.890;9.278;2022-08-11T02:39:09;99118.28;;;20.34;39.77
9969;BME280;5025;48.890;9.278;2022-08-11T02:42:04;99117.75;;;20.32;39.71
9969;BME280;5025;48.890;9.278;2022-08-11T02:52:33;99123.84;;;20.23;39.92
9969;BME280;5025;48.890;9.278;2022-08-11T02:55:17;99115.06;;;20.21;40.04
9969;BME280;5025;48.890;9.278;2022-08-11T02:57:54;99127.69;;;20.22;40.03
9969;BME280;5025;48.890;9.278;2022-08-11T03:00:22;99116.47;;;20.19;40.04
9969;BME280;5025;48.890;9.278;2022-08-11T03:03:09;99123.56;;;20.20;40.27
9969;BME280;5025;48.890;9.278;2022-08-11T03:06:04;99123.84;;;20.18;40.22
9969;BME280;5025;48.890;9.278;2022-08-11T03:08:42;99121.97;;;20.14;40.26
9969;BME280;5025;48.890;9.278;2022-08-11T03:17:28;99128.59;;;20.08;40.53
9969;BME280;5025;48.890;9.278;2022-08-11T03:20:19;99125.59;;;20.04;40.47
9969;BME280;5025;48.890;9.278;2022-08-11T03:22:59;99122.34;;;20.02;40.48
9969;BME280;5025;48.890;9.278;2022-08-11T03:25:31;99131.41;;;19.97;40.45
9969;BME280;5025;48.890;9.278;2022-08-11T03:28:33;99130.56;;;19.97;40.73
9969;BME280;5025;48.890;9.278;2022-08-11T03:33:50;99137.47;;;19.84;40.84
9969;BME280;5025;48.890;9.278;2022-08-11T03:39:06;99140.25;;;19.74;41.09
9969;BME280;5025;48.890;9.278;2022-08-11T03:59:12;99144.97;;;19.58;41.63
9969;BME280;5025;48.890;9.278;2022-08-11T04:26:56;99140.13;;;19.24;42.71
9969;BME280;5025;48.890;9.278;2022-08-11T04:30:02;99135.75;;;19.17;42.97
9969;BME280;5025;48.890;9.278;2022-08-11T04:35:47;99148.66;;;19.12;43.67
9969;BME280;5025;48.890;9.278;2022-08-11T04:45:06;99153.03;;;19.03;44.40
9969;BME280;5025;48.890;9.278;2022-08-11T04:57:08;99160.69;;;19.06;45.56
9969;BME280;5025;48.890;9.278;2022-08-11T05:00:06;99159.88;;;19.05;45.71
9969;BME280;5025;48.890;9.278;2022-08-11T05:03:02;99162.06;;;19.03;45.91
9969;BME280;5025;48.890;9.278;2022-08-11T05:05:52;99163.16;;;18.97;46.09
9969;BME280;5025;48.890;9.278;2022-08-11T05:16:59;99165.06;;;18.81;46.86
9969;BME280;5025;48.890;9.278;2022-08-11T05:19:47;99165.06;;;18.81;46.94
9969;BME280;5025;48.890;9.278;2022-08-11T05:22:32;99163.44;;;18.85;47.01
9969;BME280;5025;48.890;9.278;2022-08-11T05:25:19;99169.16;;;18.84;47.33
9969;BME280;5025;48.890;9.278;2022-08-11T05:28:15;99164.00;;;18.87;46.99
9969;BME280;5025;48.890;9.278;2022-08-11T05:31:02;99159.59;;;18.91;47.06
9969;BME280;5025;48.890;9.278;2022-08-11T05:33:57;99167.81;;;18.91;47.15
9969;BME280;5025;48.890;9.278;2022-08-11T05:36:52;99162.06;;;18.93;47.22
9969;BME280;5025;48.890;9.278;2022-08-11T05:39:23;99164.81;;;18.93;47.50
9969;BME280;5025;48.890;9.278;2022-08-11T05:42:09;99164.53;;;18.94;47.24
9969;BME280;5025;48.890;9.278;2022-08-11T05:44:57;99168.38;;;18.93;47.13
9969;BME280;5025;48.890;9.278;2022-08-11T05:47:47;99173.84;;;18.98;47.23
9969;BME280;5025;48.890;9.278;2022-08-11T05:50:32;99168.91;;;19.01;47.29
9969;BME280;5025;48.890;9.278;2022-08-11T05:53:17;99176.56;;;18.98;47.41
9969;BME280;5025;48.890;9.278;2022-08-11T05:56:05;99175.19;;;18.96;47.37
9969;BME280;5025;48.890;9.278;2022-08-11T05:58:50;99179.84;;;19.01;47.16
9969;BME280;5025;48.890;9.278;2022-08-11T06:01:32;99181.22;;;19.08;47.12
9969;BME280;5025;48.890;9.278;2022-08-11T06:04:04;99171.38;;;19.12;47.12
9969;BME280;5025;48.890;9.278;2022-08-11T06:06:50;99171.91;;;19.20;47.08
9969;BME280;5025;48.890;9.278;2022-08-11T06:09:25;99178.19;;;19.25;47.37
9969;BME280;5025;48.890;9.278;2022-08-11T06:11:51;99165.59;;;19.29;47.38
9969;BME280;5025;48.890;9.278;2022-08-11T06:14:17;99167.78;;;19.32;47.39
9969;BME280;5025;48.890;9.278;2022-08-11T06:16:46;99165.56;;;19.40;47.17
9969;BME280;5025;48.890;9.278;2022-08-11T06:19:13;99159.53;;;19.48;47.03
9969;BME280;5025;48.890;9.278;2022-08-11T06:21:44;99158.69;;;19.52;46.76
9969;BME280;5025;48.890;9.278;2022-08-11T06:24:10;99157.00;;;19.62;46.54
9969;BME280;5025;48.890;9.278;2022-08-11T06:26:37;99164.09;;;19.68;46.27
9969;BME280;5025;48.890;9.278;2022-08-11T06:29:04;99166.28;;;19.71;46.21
9969;BME280;5025;48.890;9.278;2022-08-11T06:31:31;99167.94;;;19.77;46.35
9969;BME280;5025;48.890;9.278;2022-08-11T06:34:10;99166.25;;;19.81;46.24
9969;BME280;5025;48.890;9.278;2022-08-11T06:39:44;99173.34;;;19.98;45.99
9969;BME280;5025;48.890;9.278;2022-08-11T06:47:54;99161.41;;;20.23;45.15
9969;BME280;5025;48.890;9.278;2022-08-11T06:50:23;99170.94;;;20.31;45.05
9969;BME280;5025;48.890;9.278;2022-08-11T06:53:08;99172.25;;;20.44;44.74
9969;BME280;5025;48.890;9.278;2022-08-11T06:55:43;99166.72;;;20.49;44.66
9969;BME280;5025;48.890;9.278;2022-08-11T06:58:30;99170.78;;;20.56;44.64
9969;BME280;5025;48.890;9.278;2022-08-11T07:01:31;99163.88;;;20.64;44.23
9969;BME280;5025;48.890;9.278;2022-08-11T07:04:05;99161.97;;;20.70;44.12
9969;BME280;5025;48.890;9.278;2022-08-11T07:12:54;99160.91;;;20.95;43.65
9969;BME280;5025;48.890;9.278;2022-08-11T07:15:41;99162.22;;;21.03;43.53
9969;BME280;5025;48.890;9.278;2022-08-11T07:18:10;99170.91;;;21.10;43.49
9969;BME280;5025;48.890;9.278;2022-08-11T07:21:07;99158.78;;;21.16;43.01
9969;BME280;5025;48.890;9.278;2022-08-11T07:23:54;99159.19;;;21.28;42.79
9969;BME280;5025;48.890;9.278;2022-08-11T07:26:42;99155.25;;;21.40;42.48
9969;BME280;5025;48.890;9.278;2022-08-11T07:29:30;99155.16;;;21.50;42.40
9969;BME280;5025;48.890;9.278;2022-08-11T07:31:57;99155.63;;;21.57;42.46
9969;BME280;5025;48.890;9.278;2022-08-11T07:34:35;99152.25;;;21.65;41.97
9969;BME280;5025;48.890;9.278;2022-08-11T07:37:07;99145.56;;;21.72;41.75
9969;BME280;5025;48.890;9.278;2022-08-11T07:39:35;99153.19;;;21.80;41.70
9969;BME280;5025;48.890;9.278;2022-08-11T07:42:08;99144.56;;;21.87;41.41
9969;BME280;5025;48.890;9.278;2022-08-11T07:44:34;99136.81;;;21.89;41.32
9969;BME280;5025;48.890;9.278;2022-08-11T07:47:24;99134.75;;;21.99;41.12
9969;BME280;5025;48.890;9.278;2022-08-11T07:50:13;99138.47;;;22.09;41.02
9969;BME280;5025;48.890;9.278;2022-08-11T07:52:59;99147.50;;;22.14;40.80
9969;BME280;5025;48.890;9.278;2022-08-11T07:55:25;99134.56;;;22.15;40.46
9969;BME280;5025;48.890;9.278;2022-08-11T07:57:52;99127.56;;;22.23;40.42
9969;BME280;5025;48.890;9.278;2022-08-11T08:00:49;99135.91;;;22.36;40.04
9969;BME280;5025;48.890;9.278;2022-08-11T08:03:34;99125.88;;;22.46;39.58
9969;BME280;5025;48.890;9.278;2022-08-11T08:06:19;99129.28;;;22.56;39.29
9969;BME280;5025;48.890;9.278;2022-08-11T08:09:05;99117.28;;;22.66;38.99
9969;BME280;5025;48.890;9.278;2022-08-11T08:11:50;99122.31;;;22.78;39.11
9969;BME280;5025;48.890;9.278;2022-08-11T08:14:34;99124.91;;;22.88;39.05
9969;BME280;5025;48.890;9.278;2022-08-11T08:17:21;99128.06;;;22.96;38.71
9969;BME280;5025;48.890;9.278;2022-08-11T08:20:09;99124.94;;;23.02;38.88
9969;BME280;5025;48.890;9.278;2022-08-11T08:22:35;99127.59;;;23.07;38.91
9969;BME280;5025;48.890;9.278;2022-08-11T08:25:01;99125.59;;;23.13;38.79
9969;BME280;5025;48.890;9.278;2022-08-11T08:27:27;99123.84;;;23.17;38.92
9969;BME280;5025;48.890;9.278;2022-08-11T08:29:54;99130.00;;;23.28;38.91
9969;BME280;5025;48.890;9.278;2022-08-11T08:32:39;99126.53;;;23.36;38.76
9969;BME280;5025;48.890;9.278;2022-08-11T08:35:06;99120.94;;;23.41;38.34
9969;BME280;5025;48.890;9.278;2022-08-11T08:37:34;99123.56;;;23.47;38.47
9969;BME280;5025;48.890;9.278;2022-08-11T08:39:59;99124.50;;;23.56;37.99
9969;BME280;5025;48.890;9.278;2022-08-11T08:42:26;99121.03;;;23.64;37.70
9969;BME280;5025;48.890;9.278;2022-08-11T08:45:12;99123.69;;;23.69;37.50
9969;BME280;5025;48.890;9.278;2022-08-11T08:47:41;99129.06;;;23.74;36.72
9969;BME280;5025;48.890;9.278;2022-08-11T08:50:11;99122.31;;;23.80;36.67
9969;BME280;5025;48.890;9.278;2022-08-11T08:52:39;99125.53;;;23.88;36.58
9969;BME280;5025;48.890;9.278;2022-08-11T08:55:09;99121.72;;;23.97;36.36
9969;BME280;5025;48.890;9.278;2022-08-11T08:57:37;99125.69;;;24.05;36.32
9969;BME280;5025;48.890;9.278;2022-08-11T09:00:06;99121.81;;;24.06;35.36
9969;BME280;5025;48.890;9.278;2022-08-11T09:02:32;99124.75;;;24.10;34.58
9969;BME280;5025;48.890;9.278;2022-08-11T09:04:59;99120.75;;;24.16;34.47
9969;BME280;5025;48.890;9.278;2022-08-11T09:07:26;99116.13;;;24.25;34.10
9969;BME280;5025;48.890;9.278;2022-08-11T09:09:53;99116.53;;;24.32;33.71
9969;BME280;5025;48.890;9.278;2022-08-11T09:12:21;99117.72;;;24.40;33.88
9969;BME280;5025;48.890;9.278;2022-08-11T09:14:51;99128.81;;;24.49;33.72
9969;BME280;5025;48.890;9.278;2022-08-11T09:17:33;99125.03;;;24.59;33.48
9969;BME280;5025;48.890;9.278;2022-08-11T09:20:22;99126.56;;;24.65;33.19
9969;BME280;5025;48.890;9.278;2022-08-11T09:22:50;99126.28;;;24.75;32.99
9969;BME280;5025;48.890;9.278;2022-08-11T09:25:35;99119.38;;;24.86;32.74
9969;BME280;5025;48.890;9.278;2022-08-11T09:28:20;99124.13;;;24.95;32.09
9969;BME280;5025;48.890;9.278;2022-08-11T09:30:49;99126.59;;;24.96;31.14
9969;BME280;5025;48.890;9.278;2022-08-11T09:33:19;99123.84;;;25.05;31.23
9969;BME280;5025;48.890;9.278;2022-08-11T09:35:46;99121.47;;;25.12;31.24
9969;BME280;5025;48.890;9.278;2022-08-11T09:38:14;99124.91;;;25.18;31.04
9969;BME280;5025;48.890;9.278;2022-08-11T09:40:59;99121.69;;;25.24;30.86
9969;BME280;5025;48.890;9.278;2022-08-11T09:43:26;99122.56;;;25.34;30.86
9969;BME280;5025;48.890;9.278;2022-08-11T09:46:11;99115.28;;;25.47;30.78
9969;BME280;5025;48.890;9.278;2022-08-11T09:48:45;99113.69;;;25.54;30.77
9969;BME280;5025;48.890;9.278;2022-08-11T09:51:12;99120.84;;;25.55;30.38
9969;BME280;5025;48.890;9.278;2022-08-11T09:53:40;99111.94;;;25.67;30.41
9969;BME280;5025;48.890;9.278;2022-08-11T09:56:14;99116.03;;;25.79;30.34
9969;BME280;5025;48.890;9.278;2022-08-11T09:58:58;99105.00;;;25.87;29.70
9969;BME280;5025;48.890;9.278;2022-08-11T10:01:36;99105.00;;;25.96;30.08
9969;BME280;5025;48.890;9.278;2022-08-11T10:04:13;99101.78;;;26.03;29.91
9969;BME280;5025;48.890;9.278;2022-08-11T10:06:44;99104.56;;;26.03;29.96
9969;BME280;5025;48.890;9.278;2022-08-11T10:09:27;99102.75;;;26.07;30.17
9969;BME280;5025;48.890;9.278;2022-08-11T10:11:56;99096.44;;;26.15;29.80
9969;BME280;5025;48.890;9.278;2022-08-11T10:14:22;99104.72;;;26.24;29.73
9969;BME280;5025;48.890;9.278;2022-08-11T10:17:08;99099.19;;;26.33;29.76
9969;BME280;5025;48.890;9.278;2022-08-11T10:19:35;99098.06;;;26.34;29.63
9969;BME280;5025;48.890;9.278;2022-08-11T10:22:05;99102.91;;;26.37;29.53
9969;BME280;5025;48.890;9.278;2022-08-11T10:24:50;99090.53;;;26.43;29.42
9969;BME280;5025;48.890;9.278;2022-08-11T10:27:35;99099.81;;;26.47;29.43
9969;BME280;5025;48.890;9.278;2022-08-11T10:30:01;99090.69;;;26.55;29.34
9969;BME280;5025;48.890;9.278;2022-08-11T10:32:46;99090.38;;;26.65;29.12
9969;BME280;5025;48.890;9.278;2022-08-11T10:35:33;99079.78;;;26.76;28.50
9969;BME280;5025;48.890;9.278;2022-08-11T10:37:59;99073.25;;;26.81;27.99
9969;BME280;5025;48.890;9.278;2022-08-11T10:40:25;99066.38;;;26.87;27.26
9969;BME280;5025;48.890;9.278;2022-08-11T10:42:54;99060.19;;;26.90;27.32
9969;BME280;5025;48.890;9.278;2022-08-11T10:45:32;99065.69;;;26.99;27.16
9969;BME280;5025;48.890;9.278;2022-08-11T10:48:18;99060.59;;;27.10;27.67
9969;BME280;5025;48.890;9.278;2022-08-11T10:50:46;99046.19;;;27.25;27.24
9969;BME280;5025;48.890;9.278;2022-08-11T10:53:31;99071.06;;;27.43;27.07
9969;BME280;5025;48.890;9.278;2022-08-11T10:56:16;99060.53;;;27.57;26.90
9969;BME280;5025;48.890;9.278;2022-08-11T10:59:01;99062.47;;;27.65;26.42
9969;BME280;5025;48.890;9.278;2022-08-11T11:01:36;99043.44;;;27.76;26.35
9969;BME280;5025;48.890;9.278;2022-08-11T11:04:07;99056.97;;;27.78;25.65
9969;BME280;5025;48.890;9.278;2022-08-11T11:06:50;99050.34;;;27.91;25.57
9969;BME280;5025;48.890;9.278;2022-08-11T11:09:23;99046.03;;;28.02;25.20
9969;BME280;5025;48.890;9.278;2022-08-11T11:11:55;99044.50;;;28.14;25.18
9969;BME280;5025;48.890;9.278;2022-08-11T11:14:42;99042.81;;;28.21;25.26
9969;BME280;5025;48.890;9.278;2022-08-11T11:17:29;99040.53;;;28.36;25.10
9969;BME280;5025;48.890;9.278;2022-08-11T11:20:22;99046.47;;;28.47;24.81
9969;BME280;5025;48.890;9.278;2022-08-11T11:22:52;99037.47;;;28.50;24.73
9969;BME280;5025;48.890;9.278;2022-08-11T11:37:04;99017.56;;;28.48;23.41
9969;BME280;5025;48.890;9.278;2022-08-11T11:39:31;99017.06;;;28.46;23.33
9969;BME280;5025;48.890;9.278;2022-08-11T11:42:05;99015.84;;;28.55;23.35
9969;BME280;5025;48.890;9.278;2022-08-11T11:44:31;99022.03;;;28.73;23.77
9969;BME280;5025;48.890;9.278;2022-08-11T11:46:57;99008.63;;;28.88;23.52
9969;BME280;5025;48.890;9.278;2022-08-11T11:49:27;99005.72;;;28.96;23.78
9969;BME280;5025;48.890;9.278;2022-08-11T11:51:54;99005.13;;;29.03;23.93
9969;BME280;5025;48.890;9.278;2022-08-11T11:54:23;99007.72;;;29.08;23.35
9969;BME280;5025;48.890;9.278;2022-08-11T11:56:50;98999.72;;;29.19;23.53
9969;BME280;5025;48.890;9.278;2022-08-11T11:59:19;99002.19;;;29.33;23.49
9969;BME280;5025;48.890;9.278;2022-08-11T12:02:04;98992.19;;;29.44;23.03
9969;BME280;5025;48.890;9.278;2022-08-11T12:04:30;98989.03;;;29.46;22.99
9969;BME280;5025;48.890;9.278;2022-08-11T12:06:56;98996.81;;;29.40;22.40
9969;BME280;5025;48.890;9.278;2022-08-11T12:09:43;99004.09;;;29.45;22.83
9969;BME280;5025;48.890;9.278;2022-08-11T12:12:10;98992.59;;;29.59;22.62
9969;BME280;5025;48.890;9.278;2022-08-11T12:14:55;98983.81;;;29.57;21.93
9969;BME280;5025;48.890;9.278;2022-08-11T12:17:21;98991.00;;;29.58;22.14
9969;BME280;5025;48.890;9.278;2022-08-11T12:19:47;98978.66;;;29.71;22.03
9969;BME280;5025;48.890;9.278;2022-08-11T12:22:13;98979.13;;;29.85;22.10
9969;BME280;5025;48.890;9.278;2022-08-11T12:24:59;98965.34;;;30.05;22.09
9969;BME280;5025;48.890;9.278;2022-08-11T12:27:43;98977.13;;;30.14;21.85
9969;BME280;5025;48.890;9.278;2022-08-11T12:30:09;98976.19;;;30.23;21.57
9969;BME280;5025;48.890;9.278;2022-08-11T12:32:37;98971.72;;;30.34;21.45
9969;BME280;5025;48.890;9.278;2022-08-11T12:35:04;98966.50;;;30.32;21.27
9969;BME280;5025;48.890;9.278;2022-08-11T12:37:40;98963.19;;;30.43;21.27
9969;BME280;5025;48.890;9.278;2022-08-11T12:40:13;98949.66;;;30.57;21.33
9969;BME280;5025;48.890;9.278;2022-08-11T12:43:02;98961.88;;;30.68;21.00
9969;BME280;5025;48.890;9.278;2022-08-11T12:45:46;98962.44;;;30.74;20.99
9969;BME280;5025;48.890;9.278;2022-08-11T12:48:17;98957.28;;;30.76;20.59
9969;BME280;5025;48.890;9.278;2022-08-11T12:51:05;98953.06;;;30.82;20.46
9969;BME280;5025;48.890;9.278;2022-08-11T12:53:59;98947.84;;;30.81;20.22
9969;BME280;5025;48.890;9.278;2022-08-11T12:56:27;98955.94;;;30.86;19.98
9969;BME280;5025;48.890;9.278;2022-08-11T12:59:15;98948.47;;;30.90;19.94
9969;BME280;5025;48.890;9.278;2022-08-11T13:02:01;98939.75;;;30.91;19.27
9969;BME280;5025;48.890;9.278;2022-08-11T13:04:46;98928.78;;;30.83;19.41
9969;BME280;5025;48.890;9.278;2022-08-11T13:07:24;98932.47;;;30.87;19.37
9969;BME280;5025;48.890;9.278;2022-08-11T13:09:51;98927.44;;;31.08;19.85
9969;BME280;5025;48.890;9.278;2022-08-11T13:12:18;98918.28;;;31.27;19.60
9969;BME280;5025;48.890;9.278;2022-08-11T13:15:03;98923.31;;;31.38;18.89
9969;BME280;5025;48.890;9.278;2022-08-11T13:17:30;98926.47;;;31.36;18.70
9969;BME280;5025;48.890;9.278;2022-08-11T13:19:58;98923.00;;;31.43;18.63
9969;BME280;5025;48.890;9.278;2022-08-11T13:22:25;98915.81;;;31.42;18.76
9969;BME280;5025;48.890;9.278;2022-08-11T13:24:52;98918.94;;;31.56;18.57
9969;BME280;5025;48.890;9.278;2022-08-11T13:27:20;98916.22;;;31.79;19.02
9969;BME280;5025;48.890;9.278;2022-08-11T13:29:48;98925.41;;;31.99;18.74
9969;BME280;5025;48.890;9.278;2022-08-11T13:32:15;98919.50;;;32.05;18.21
9969;BME280;5025;48.890;9.278;2022-08-11T13:34:41;98921.56;;;32.08;17.85
9969;BME280;5025;48.890;9.278;2022-08-11T13:37:12;98914.88;;;32.12;17.69
9969;BME280;5025;48.890;9.278;2022-08-11T13:39:41;98916.63;;;32.21;17.71
9969;BME280;5025;48.890;9.278;2022-08-11T13:42:12;98915.66;;;32.32;17.80
9969;BME280;5025;48.890;9.278;2022-08-11T13:44:40;98909.44;;;32.43;17.93
9969;BME280;5025;48.890;9.278;2022-08-11T13:47:08;98913.19;;;32.50;17.43
9969;BME280;5025;48.890;9.278;2022-08-11T13:49:38;98904.22;;;32.41;17.16
9969;BME280;5025;48.890;9.278;2022-08-11T13:52:05;98897.44;;;32.42;17.16
9969;BME280;5025;48.890;9.278;2022-08-11T13:54:35;98895.66;;;32.53;17.10
9969;BME280;5025;48.890;9.278;2022-08-11T13:57:06;98892.41;;;32.75;16.99
9969;BME280;5025;48.890;9.278;2022-08-11T13:59:33;98890.66;;;32.90;16.94
9969;BME280;5025;48.890;9.278;2022-08-11T14:02:01;98888.84;;;33.04;16.84
9969;BME280;5025;48.890;9.278;2022-08-11T14:04:34;98893.19;;;33.25;17.12
9969;BME280;5025;48.890;9.278;2022-08-11T14:07:06;98887.00;;;33.42;16.87
9969;BME280;5025;48.890;9.278;2022-08-11T14:09:36;98876.94;;;33.68;17.03
9969;BME280;5025;48.890;9.278;2022-08-11T14:12:07;98868.06;;;33.97;16.66
9969;BME280;5025;48.890;9.278;2022-08-11T14:14:59;98865.66;;;33.99;15.78
9969;BME280;5025;48.890;9.278;2022-08-11T14:17:29;98864.38;;;33.89;15.24
9969;BME280;5025;48.890;9.278;2022-08-11T14:19:56;98867.53;;;33.84;15.20
9969;BME280;5025;48.890;9.278;2022-08-11T14:22:23;98860.44;;;33.97;15.57
9969;BME280;5025;48.890;9.278;2022-08-11T14:24:50;98857.44;;;34.17;16.01
9969;BME280;5025;48.890;9.278;2022-08-11T14:27:16;98864.47;;;34.41;15.77
9969;BME280;5025;48.890;9.278;2022-08-11T14:29:44;98854.09;;;34.45;15.33
9969;BME280;5025;48.890;9.278;2022-08-11T14:32:12;98859.75;;;34.48;15.03
9969;BME280;5025;48.890;9.278;2022-08-11T14:34:42;98861.94;;;34.73;15.46
9969;BME280;5025;48.890;9.278;2022-08-11T14:37:10;98854.78;;;34.79;15.38
9969;BME280;5025;48.890;9.278;2022-08-11T14:39:44;98854.84;;;34.87;15.16
9969;BME280;5025;48.890;9.278;2022-08-11T14:42:13;98851.66;;;34.92;15.24
9969;BME280;5025;48.890;9.278;2022-08-11T14:45:01;98856.16;;;35.07;15.60
9969;BME280;5025;48.890;9.278;2022-08-11T14:47:49;98852.59;;;35.14;15.01
9969;BME280;5025;48.890;9.278;2022-08-11T14:50:18;98840.28;;;35.29;15.35
9969;BME280;5025;48.890;9.278;2022-08-11T14:53:10;98841.91;;;35.38;14.77
9969;BME280;5025;48.890;9.278;2022-08-11T14:55:38;98831.91;;;35.40;14.35
9969;BME280;5025;48.890;9.278;2022-08-11T14:58:25;98837.50;;;35.40;14.49
9969;BME280;5025;48.890;9.278;2022-08-11T15:00:57;98828.53;;;35.16;14.16
9969;BME280;5025;48.890;9.278;2022-08-11T15:03:25;98836.50;;;35.04;14.34
9969;BME280;5025;48.890;9.278;2022-08-11T15:05:53;98827.28;;;35.03;14.82
9969;BME280;5025;48.890;9.278;2022-08-11T15:08:21;98824.47;;;35.03;14.93
9969;BME280;5025;48.890;9.278;2022-08-11T15:11:10;98821.25;;;35.01;14.55
9969;BME280;5025;48.890;9.278;2022-08-11T15:14:10;98819.19;;;34.91;14.25
9969;BME280;5025;48.890;9.278;2022-08-11T15:16:39;98819.66;;;35.00;14.69
9969;BME280;5025;48.890;9.278;2022-08-11T15:19:24;98812.47;;;35.06;14.53
9969;BME280;5025;48.890;9.278;2022-08-11T15:21:50;98811.28;;;35.18;14.61
9969;BME280;5025;48.890;9.278;2022-08-11T15:24:35;98813.38;;;35.28;14.95
9969;BME280;5025;48.890;9.278;2022-08-11T15:27:04;98814.63;;;35.34;14.80
9969;BME280;5025;48.890;9.278;2022-08-11T15:29:51;98810.97;;;35.27;14.53
9969;BME280;5025;48.890;9.278;2022-08-11T15:32:38;98808.16;;;35.27;14.62
9969;BME280;5025;48.890;9.278;2022-08-11T15:35:25;98808.94;;;35.24;14.91
9969;BME280;5025;48.890;9.278;2022-08-11T15:38:11;98804.44;;;35.12;14.95
9969;BME280;5025;48.890;9.278;2022-08-11T15:40:39;98798.00;;;35.00;14.77
9969;BME280;5025;48.890;9.278;2022-08-11T15:46:32;98795.69;;;34.58;14.96
9969;BME280;5025;48.890;9.278;2022-08-11T15:49:07;98793.22;;;34.45;15.16
9969;BME280;5025;48.890;9.278;2022-08-11T15:51:39;98799.22;;;34.44;15.20
9969;BME280;5025;48.890;9.278;2022-08-11T15:54:12;98803.94;;;34.29;15.40
9969;BME280;5025;48.890;9.278;2022-08-11T15:56:43;98791.25;;;34.01;15.28
9969;BME280;5025;48.890;9.278;2022-08-11T15:59:10;98789.16;;;33.91;15.23
9969;BME280;5025;48.890;9.278;2022-08-11T16:01:56;98795.47;;;33.81;15.64
9969;BME280;5025;48.890;9.278;2022-08-11T16:04:41;98791.28;;;33.64;15.34
9969;BME280;5025;48.890;9.278;2022-08-11T16:07:16;98789.53;;;33.52;15.70
9969;BME280;5025;48.890;9.278;2022-08-11T16:09:46;98795.03;;;33.45;15.69
9969;BME280;5025;48.890;9.278;2022-08-11T16:12:36;98792.84;;;33.27;15.80
9969;BME280;5025;48.890;9.278;2022-08-11T16:15:05;98788.72;;;33.17;15.82
9969;BME280;5025;48.890;9.278;2022-08-11T16:17:59;98795.69;;;33.00;16.31
9969;BME280;5025;48.890;9.278;2022-08-11T16:20:27;98792.00;;;32.93;16.39
9969;BME280;5025;48.890;9.278;2022-08-11T16:22:58;98795.81;;;32.81;16.62
9969;BME280;5025;48.890;9.278;2022-08-11T16:25:25;98785.31;;;32.70;16.63
9969;BME280;5025;48.890;9.278;2022-08-11T16:27:55;98784.56;;;32.74;16.70
9969;BME280;5025;48.890;9.278;2022-08-11T16:30:41;98780.25;;;32.80;16.69
9969;BME280;5025;48.890;9.278;2022-08-11T16:33:09;98775.41;;;32.77;16.64
9969;BME280;5025;48.890;9.278;2022-08-11T16:35:36;98781.75;;;32.74;17.03
9969;BME280;5025;48.890;9.278;2022-08-11T16:38:24;98771.69;;;32.69;16.77
9969;BME280;5025;48.890;9.278;2022-08-11T16:41:12;98780.47;;;32.67;16.73
9969;BME280;5025;48.890;9.278;2022-08-11T16:43:44;98775.63;;;32.64;16.82
9969;BME280;5025;48.890;9.278;2022-08-11T16:46:28;98772.34;;;32.62;16.92
9969;BME280;5025;48.890;9.278;2022-08-11T16:49:20;98779.91;;;32.58;16.93
9969;BME280;5025;48.890;9.278;2022-08-11T16:51:46;98775.06;;;32.55;17.41
9969;BME280;5025;48.890;9.278;2022-08-11T16:54:12;98770.59;;;32.50;17.21
9969;BME280;5025;48.890;9.278;2022-08-11T16:56:49;98777.19;;;32.39;17.21
9969;BME280;5025;48.890;9.278;2022-08-11T16:59:31;98774.66;;;32.30;17.55
9969;BME280;5025;48.890;9.278;2022-08-11T17:02:02;98776.66;;;32.29;17.39
9969;BME280;5025;48.890;9.278;2022-08-11T17:04:37;98779.03;;;32.27;17.61
9969;BME280;5025;48.890;9.278;2022-08-11T17:07:23;98780.25;;;32.30;17.96
9969;BME280;5025;48.890;9.278;2022-08-11T17:10:14;98771.44;;;32.28;17.99
9969;BME280;5025;48.890;9.278;2022-08-11T17:13:00;98772.56;;;32.23;18.08
9969;BME280;5025;48.890;9.278;2022-08-11T17:15:38;98774.06;;;32.17;18.05
9969;BME280;5025;48.890;9.278;2022-08-11T17:18:24;98779.16;;;32.11;18.24
9969;BME280;5025;48.890;9.278;2022-08-11T17:21:11;98777.03;;;32.05;18.02